createdAt,value
2023-03-03T00:01:08.805Z,76.84
2023-03-03T00:03:35.256Z,76.62
2023-03-03T00:06:03.118Z,76.96
2023-03-03T00:08:29.524Z,76.08
2023-03-03T00:10:55.829Z,76.22
2023-03-03T00:13:23.550Z,76.31
2023-03-03T00:15:51.616Z,76.05
2023-03-03T00:18:28.671Z,76.33
2023-03-03T00:20:56.662Z,76.59
2023-03-03T00:23:36.538Z,76.31
2023-03-03T00:26:13.597Z,76.54
2023-03-03T00:28:47.432Z,77.06
2023-03-03T00:31:18.573Z,76.41
2023-03-03T00:33:55.133Z,76.38
2023-03-03T00:36:37.952Z,76.08
2023-03-03T00:39:26.044Z,76.53
2023-03-03T00:41:52.450Z,76.73
2023-03-03T00:44:37.179Z,77.57
2023-03-03T00:47:22.302Z,77.20
2023-03-03T00:49:48.593Z,77.97
2023-03-03T00:52:17.032Z,78.06
2023-03-03T00:54:43.497Z,77.95
2023-03-03T00:57:12.560Z,78.93
2023-03-03T00:59:39.147Z,76.85
2023-03-03T01:02:05.840Z,77.33
2023-03-03T01:04:32.271Z,77.29
2023-03-03T01:06:58.742Z,76.98
2023-03-03T01:09:25.121Z,77.67
2023-03-03T01:11:51.713Z,77.10
2023-03-03T01:14:18.200Z,77.20
2023-03-03T01:16:44.551Z,76.88
2023-03-03T01:19:10.888Z,76.87
2023-03-03T01:21:37.288Z,77.22
2023-03-03T01:24:03.628Z,77.42
2023-03-03T01:26:31.385Z,77.54
2023-03-03T01:28:57.687Z,76.78
2023-03-03T01:31:24.066Z,75.77
2023-03-03T01:33:50.599Z,76.97
2023-03-03T01:36:22.710Z,76.50
2023-03-03T01:38:49.035Z,76.66
2023-03-03T01:41:15.343Z,77.80
2023-03-03T01:43:45.854Z,78.62
2023-03-03T01:46:24.016Z,77.92
2023-03-03T01:48:53.482Z,77.67
2023-03-03T01:51:23.738Z,77.55
2023-03-03T01:53:51.580Z,78.08
2023-03-03T01:56:18.281Z,77.07
2023-03-03T01:58:46.901Z,77.65
2023-03-03T02:01:19.286Z,78.09
2023-03-03T02:03:45.600Z,77.90
2023-03-03T02:06:16.353Z,78.20
2023-03-03T02:08:53.795Z,77.79
2023-03-03T02:11:21.848Z,77.76
2023-03-03T02:13:48.213Z,76.78
2023-03-03T02:16:14.998Z,77.57
2023-03-03T02:18:41.370Z,77.08
2023-03-03T02:21:12.591Z,76.85
2023-03-03T02:23:47.931Z,77.32
2023-03-03T02:26:25.903Z,77.90
2023-03-03T02:28:52.502Z,77.89
2023-03-03T02:31:20.132Z,77.62
2023-03-03T02:33:48.185Z,77.61
2023-03-03T02:36:15.705Z,77.61
2023-03-03T02:38:54.176Z,76.99
2023-03-03T02:41:23.516Z,77.73
2023-03-03T02:43:52.832Z,77.56
2023-03-03T02:46:19.254Z,77.46
2023-03-03T02:48:45.597Z,78.08
2023-03-03T02:51:11.874Z,78.04
2023-03-03T02:53:38.313Z,77.77
2023-03-03T02:56:04.887Z,78.02
2023-03-03T02:58:31.351Z,77.58
2023-03-03T03:00:57.806Z,77.38
2023-03-03T03:03:24.267Z,77.32
2023-03-03T03:05:50.861Z,76.50
2023-03-03T03:08:17.163Z,77.24
2023-03-03T03:10:43.722Z,76.97
2023-03-03T03:13:10.056Z,76.73
2023-03-03T03:15:36.485Z,76.36
2023-03-03T03:18:02.827Z,76.77
2023-03-03T03:20:29.296Z,77.04
2023-03-03T03:22:55.604Z,77.18
2023-03-03T03:25:21.933Z,77.81
2023-03-03T03:27:48.270Z,78.33
2023-03-03T03:30:15.147Z,78.80
2023-03-03T03:32:41.466Z,78.63
2023-03-03T03:35:07.929Z,78.51
2023-03-03T03:37:34.222Z,78.41
2023-03-03T03:40:00.583Z,77.63
2023-03-03T03:42:27.005Z,78.20
2023-03-03T03:44:53.325Z,77.18
2023-03-03T03:47:19.670Z,77.04
2023-03-03T03:49:45.929Z,77.90
2023-03-03T03:52:12.223Z,76.72
2023-03-03T03:54:38.533Z,77.23
2023-03-03T03:57:04.882Z,77.43
2023-03-03T03:59:31.290Z,77.13
2023-03-03T04:01:57.657Z,76.72
2023-03-03T04:04:23.959Z,77.50
2023-03-03T04:06:50.343Z,78.23
2023-03-03T04:09:16.685Z,77.36
2023-03-03T04:11:42.970Z,77.25
2023-03-03T04:14:09.234Z,77.80
2023-03-03T04:16:35.734Z,77.30
2023-03-03T04:19:02.029Z,76.94
2023-03-03T04:21:28.359Z,78.06
2023-03-03T04:23:54.746Z,77.76
2023-03-03T04:26:21.123Z,77.71
2023-03-03T04:28:47.393Z,78.14
2023-03-03T04:31:13.713Z,78.66
2023-03-03T04:33:40.134Z,79.21
2023-03-03T04:36:06.502Z,79.21
2023-03-03T04:38:32.946Z,78.20
2023-03-03T04:40:59.240Z,78.19
2023-03-03T04:43:25.651Z,77.78
2023-03-03T04:45:52.159Z,77.73
2023-03-03T04:48:18.473Z,78.05
2023-03-03T04:50:44.780Z,77.56
2023-03-03T04:53:11.088Z,77.71
2023-03-03T04:55:37.747Z,78.48
2023-03-03T04:58:04.920Z,78.26
2023-03-03T05:00:31.549Z,78.72
2023-03-03T05:02:58.198Z,78.20
2023-03-03T05:05:24.464Z,78.40
2023-03-03T05:07:50.773Z,77.88
2023-03-03T05:10:17.128Z,78.31
2023-03-03T05:12:44.097Z,76.87
2023-03-03T05:15:10.718Z,76.96
2023-03-03T05:17:37.134Z,77.62
2023-03-03T05:20:05.495Z,77.69
2023-03-03T05:22:31.828Z,77.43
2023-03-03T05:24:58.114Z,78.50
2023-03-03T05:27:24.430Z,77.81
2023-03-03T05:29:51.243Z,78.25
2023-03-03T05:32:17.566Z,77.81
2023-03-03T05:34:43.896Z,78.13
2023-03-03T05:37:10.232Z,77.88
2023-03-03T05:39:36.593Z,78.13
2023-03-03T05:42:03.110Z,77.54
2023-03-03T05:44:29.722Z,77.57
2023-03-03T05:46:57.649Z,77.81
2023-03-03T05:49:24.011Z,77.52
2023-03-03T05:51:50.346Z,77.09
2023-03-03T05:54:16.669Z,78.16
2023-03-03T05:56:42.991Z,78.14
2023-03-03T05:59:09.305Z,78.56
2023-03-03T06:01:35.658Z,78.50
2023-03-03T06:04:02.014Z,78.78
2023-03-03T06:06:28.347Z,78.68
2023-03-03T06:08:57.123Z,77.93
2023-03-03T06:11:23.659Z,77.96
2023-03-03T06:13:49.998Z,78.51
2023-03-03T06:16:16.336Z,78.55
2023-03-03T06:18:42.669Z,78.75
2023-03-03T06:21:08.980Z,79.01
2023-03-03T06:23:35.309Z,80.08
2023-03-03T06:26:01.654Z,79.17
2023-03-03T06:28:28.257Z,79.47
2023-03-03T06:30:55.145Z,79.81
2023-03-03T06:33:21.885Z,79.82
2023-03-03T06:35:51.313Z,79.94
2023-03-03T06:38:18.025Z,80.34
2023-03-03T06:40:44.767Z,79.97
2023-03-03T06:43:11.119Z,80.29
2023-03-03T06:45:37.441Z,79.02
2023-03-03T06:48:04.301Z,79.71
2023-03-03T06:50:30.737Z,79.85
2023-03-03T06:53:05.068Z,79.10
2023-03-03T06:55:31.359Z,80.13
2023-03-03T06:57:57.647Z,79.49
2023-03-03T07:00:25.018Z,79.38
2023-03-03T07:02:57.681Z,78.89
2023-03-03T07:05:24.164Z,79.92
2023-03-03T07:07:50.504Z,79.96
2023-03-03T07:10:27.669Z,78.89
2023-03-03T07:12:54.549Z,78.95
2023-03-03T07:15:24.863Z,78.81
2023-03-03T07:17:55.023Z,78.88
2023-03-03T07:20:22.939Z,79.85
2023-03-03T07:22:49.340Z,79.41
2023-03-03T07:25:42.441Z,79.32
2023-03-03T07:28:27.965Z,78.77
2023-03-03T07:30:55.375Z,78.47
2023-03-03T07:33:29.015Z,78.42
2023-03-03T07:35:56.918Z,79.36
2023-03-03T07:38:25.514Z,79.11
2023-03-03T07:40:56.365Z,79.39
2023-03-03T07:43:22.643Z,79.32
2023-03-03T07:45:49.017Z,79.55
2023-03-03T07:48:31.485Z,79.31
2023-03-03T07:51:03.299Z,78.78
2023-03-03T07:53:34.695Z,79.25
2023-03-03T07:56:01.524Z,78.52
2023-03-03T07:58:35.693Z,78.53
2023-03-03T08:01:20.753Z,78.77
2023-03-03T08:03:49.414Z,77.53
2023-03-03T08:06:34.215Z,78.08
2023-03-03T08:09:09.596Z,77.44
2023-03-03T08:11:37.785Z,77.24
2023-03-03T08:14:09.549Z,77.09
2023-03-03T08:16:37.828Z,77.19
2023-03-03T08:19:05.329Z,77.71
2023-03-03T08:21:34.425Z,77.57
2023-03-03T08:24:00.783Z,77.68
2023-03-03T08:26:27.100Z,77.43
2023-03-03T08:28:54.133Z,77.97
2023-03-03T08:31:38.334Z,78.21
2023-03-03T08:34:06.858Z,77.81
2023-03-03T08:36:34.802Z,77.74
2023-03-03T08:39:01.542Z,77.37
2023-03-03T08:41:27.889Z,77.48
2023-03-03T08:43:54.206Z,77.40
2023-03-03T08:46:20.536Z,77.93
2023-03-03T08:48:46.948Z,77.93
2023-03-03T08:51:13.261Z,76.79
2023-03-03T08:53:39.630Z,77.32
2023-03-03T08:56:06.858Z,75.81
2023-03-03T08:58:35.816Z,76.48
2023-03-03T09:01:02.841Z,77.10
2023-03-03T09:03:29.876Z,77.54
2023-03-03T09:05:56.226Z,78.03
2023-03-03T09:08:23.091Z,78.19
2023-03-03T09:10:49.395Z,79.48
2023-03-03T09:13:17.197Z,78.55
2023-03-03T09:15:43.662Z,78.43
2023-03-03T09:18:26.296Z,78.36
2023-03-03T09:20:53.927Z,79.09
2023-03-03T09:23:25.971Z,78.17
2023-03-03T09:25:52.592Z,78.38
2023-03-03T09:28:23.908Z,78.36
2023-03-03T09:30:50.948Z,77.63
2023-03-03T09:33:26.527Z,77.05
2023-03-03T09:35:58.264Z,77.22
2023-03-03T09:38:32.226Z,78.16
2023-03-03T09:41:13.726Z,77.25
2023-03-03T09:43:49.826Z,77.90
2023-03-03T09:46:28.192Z,76.84
2023-03-03T09:49:13.402Z,77.74
2023-03-03T09:51:42.829Z,76.81
2023-03-03T09:54:15.374Z,77.57
2023-03-03T09:56:51.134Z,77.33
2023-03-03T09:59:26.464Z,76.86
2023-03-03T10:01:55.744Z,77.26
2023-03-03T10:04:31.217Z,77.05
2023-03-03T10:07:06.598Z,76.66
2023-03-03T10:09:51.865Z,76.62
2023-03-03T10:12:29.205Z,76.43
2023-03-03T10:15:13.871Z,76.43
2023-03-03T10:17:40.153Z,76.29
2023-03-03T10:20:15.472Z,76.29
2023-03-03T10:22:54.081Z,76.23
2023-03-03T10:25:29.737Z,76.82
2023-03-03T10:28:08.119Z,77.77
2023-03-03T10:31:02.498Z,78.06
2023-03-03T10:33:40.294Z,77.92
2023-03-03T10:36:30.650Z,77.17
2023-03-03T10:39:00.236Z,77.16
2023-03-03T10:41:29.549Z,76.56
2023-03-03T10:43:58.895Z,76.29
2023-03-03T10:46:31.296Z,76.53
2023-03-03T10:49:19.982Z,76.13
2023-03-03T10:51:55.481Z,76.01
2023-03-03T10:54:21.770Z,76.26
2023-03-03T10:56:57.623Z,76.01
2023-03-03T10:59:31.411Z,76.90
2023-03-03T11:02:19.211Z,76.95
2023-03-03T11:05:04.668Z,76.69
2023-03-03T11:07:31.002Z,76.58
2023-03-03T11:10:08.773Z,76.49
2023-03-03T11:12:35.137Z,76.04
2023-03-03T11:15:23.338Z,77.29
2023-03-03T11:18:08.427Z,77.21
2023-03-03T11:20:37.812Z,76.21
2023-03-03T11:23:28.383Z,75.68
2023-03-03T11:26:07.713Z,76.50
2023-03-03T11:28:46.502Z,76.40
2023-03-03T11:31:31.648Z,76.11
2023-03-03T11:33:58.191Z,75.88
2023-03-03T11:36:35.170Z,75.48
2023-03-03T11:39:09.829Z,75.66
2023-03-03T11:41:39.695Z,75.29
2023-03-03T11:44:18.417Z,75.03
2023-03-03T11:46:58.843Z,75.52
2023-03-03T11:49:28.363Z,75.39
2023-03-03T11:52:03.828Z,75.73
2023-03-03T11:54:30.140Z,74.98
2023-03-03T11:57:01.513Z,75.61
2023-03-03T11:59:31.844Z,76.07
2023-03-03T12:02:03.210Z,75.73
2023-03-03T12:04:32.623Z,75.40
2023-03-03T12:07:19.718Z,75.48
2023-03-03T12:09:46.304Z,74.98
2023-03-03T12:12:13.328Z,74.95
2023-03-03T12:14:45.494Z,75.32
2023-03-03T12:17:30.109Z,74.26
2023-03-03T12:19:56.546Z,75.01
2023-03-03T12:22:25.660Z,76.00
2023-03-03T12:25:04.742Z,76.40
2023-03-03T12:27:34.365Z,75.19
2023-03-03T12:30:00.701Z,75.00
2023-03-03T12:32:32.910Z,75.46
2023-03-03T12:35:06.822Z,75.15
2023-03-03T12:37:33.407Z,74.44
2023-03-03T12:40:02.715Z,75.02
2023-03-03T12:42:52.473Z,74.54
2023-03-03T12:45:27.874Z,74.50
2023-03-03T12:48:06.855Z,73.90
2023-03-03T12:50:41.977Z,73.92
2023-03-03T12:53:17.411Z,73.89
2023-03-03T12:56:00.450Z,74.67
2023-03-03T12:58:42.175Z,74.23
2023-03-03T13:01:34.340Z,75.21
2023-03-03T13:04:12.893Z,74.52
2023-03-03T13:06:57.777Z,74.61
2023-03-03T13:09:27.424Z,75.30
2023-03-03T13:12:08.980Z,74.97
2023-03-03T13:14:35.328Z,74.33
2023-03-03T13:17:21.890Z,75.24
2023-03-03T13:20:00.268Z,74.88
2023-03-03T13:22:41.842Z,74.89
2023-03-03T13:25:23.280Z,74.40
2023-03-03T13:27:52.849Z,74.63
2023-03-03T13:30:19.160Z,75.30
2023-03-03T13:33:01.906Z,75.18
2023-03-03T13:35:45.868Z,75.23
2023-03-03T13:38:20.890Z,75.35
2023-03-03T13:40:54.721Z,74.70
2023-03-03T13:43:34.549Z,73.83
2023-03-03T13:46:01.910Z,73.70
2023-03-03T13:48:43.069Z,74.49
2023-03-03T13:51:09.499Z,73.84
2023-03-03T13:53:41.837Z,74.41
2023-03-03T13:56:22.856Z,74.58
2023-03-03T13:58:49.201Z,74.37
2023-03-03T14:01:18.742Z,74.37
2023-03-03T14:03:48.131Z,73.99
2023-03-03T14:06:17.158Z,73.89
2023-03-03T14:09:02.221Z,74.00
2023-03-03T14:11:31.468Z,73.82
2023-03-03T14:14:05.280Z,74.48
2023-03-03T14:16:47.053Z,74.25
2023-03-03T14:19:25.557Z,74.04
2023-03-03T14:22:10.924Z,73.69
2023-03-03T14:24:55.756Z,73.17
2023-03-03T14:27:27.599Z,73.36
2023-03-03T14:29:54.083Z,73.03
2023-03-03T14:32:23.105Z,73.82
2023-03-03T14:34:57.815Z,73.52
2023-03-03T14:37:42.355Z,73.54
2023-03-03T14:40:08.752Z,72.97
2023-03-03T14:42:53.595Z,72.55
2023-03-03T14:45:36.322Z,72.20
2023-03-03T14:48:12.254Z,71.92
2023-03-03T14:50:40.126Z,71.71
2023-03-03T14:53:18.822Z,72.06
2023-03-03T14:55:46.490Z,72.45
2023-03-03T14:58:25.231Z,72.16
2023-03-03T15:01:06.437Z,72.13
2023-03-03T15:03:37.957Z,72.41
2023-03-03T15:06:12.758Z,72.96
2023-03-03T15:08:40.316Z,72.52
2023-03-03T15:11:14.203Z,72.36
2023-03-03T15:13:41.132Z,72.45
2023-03-03T15:16:12.438Z,72.79
2023-03-03T15:19:00.618Z,73.31
2023-03-03T15:21:32.278Z,72.63
2023-03-03T15:24:01.407Z,73.07
2023-03-03T15:26:27.911Z,73.00
2023-03-03T15:28:59.319Z,73.64
2023-03-03T15:31:44.403Z,73.48
2023-03-03T15:34:23.982Z,72.83
2023-03-03T15:37:05.501Z,73.13
2023-03-03T15:39:37.876Z,73.62
2023-03-03T15:42:13.517Z,72.45
2023-03-03T15:44:56.414Z,74.03
2023-03-03T15:47:32.155Z,73.03
2023-03-03T15:50:06.441Z,74.16
2023-03-03T15:52:36.243Z,73.96
2023-03-03T15:55:27.672Z,73.20
2023-03-03T15:57:54.018Z,73.32
2023-03-03T16:00:36.680Z,73.47
2023-03-03T16:03:15.279Z,73.64
2023-03-03T16:05:49.666Z,74.01
2023-03-03T16:08:22.527Z,73.26
2023-03-03T16:10:54.952Z,73.58
2023-03-03T16:13:27.438Z,73.22
2023-03-03T16:15:59.943Z,73.54
2023-03-03T16:18:38.966Z,72.86
2023-03-03T16:21:24.243Z,72.98
2023-03-03T16:23:52.081Z,73.30
2023-03-03T16:26:18.446Z,73.84
2023-03-03T16:28:53.497Z,73.55
2023-03-03T16:31:22.859Z,73.39
2023-03-03T16:34:07.278Z,73.34
2023-03-03T16:36:42.413Z,73.94
2023-03-03T16:39:12.531Z,73.52
2023-03-03T16:41:55.963Z,73.50
2023-03-03T16:44:22.308Z,73.76
2023-03-03T16:46:49.824Z,73.00
2023-03-03T16:49:25.560Z,73.32
2023-03-03T16:51:54.735Z,73.73
2023-03-03T16:54:32.060Z,73.71
2023-03-03T16:57:16.583Z,74.48
2023-03-03T17:00:06.531Z,74.23
2023-03-03T17:02:45.120Z,73.91
2023-03-03T17:05:28.149Z,73.36
2023-03-03T17:08:13.360Z,73.89
2023-03-03T17:11:03.045Z,73.81
2023-03-03T17:13:48.064Z,74.21
2023-03-03T17:16:21.261Z,73.92
2023-03-03T17:19:06.082Z,75.07
2023-03-03T17:21:35.319Z,74.63
2023-03-03T17:24:10.613Z,74.39
2023-03-03T17:26:57.423Z,73.61
2023-03-03T17:29:26.551Z,72.83
2023-03-03T17:31:56.055Z,73.85
2023-03-03T17:34:34.881Z,73.29
2023-03-03T17:37:07.109Z,73.04
2023-03-03T17:39:45.110Z,72.44
2023-03-03T17:42:19.257Z,71.65
2023-03-03T17:45:04.682Z,71.85
2023-03-03T17:47:31.003Z,72.00
2023-03-03T17:49:57.286Z,70.85
2023-03-03T17:52:38.701Z,71.29
2023-03-03T17:55:17.336Z,71.51
2023-03-03T17:57:51.196Z,71.01
2023-03-03T18:00:20.729Z,71.04
2023-03-03T18:03:05.908Z,71.36
2023-03-03T18:05:32.392Z,70.99
2023-03-03T18:08:18.019Z,71.20
2023-03-03T18:11:03.012Z,71.50
2023-03-03T18:13:34.473Z,71.17
2023-03-03T18:16:12.648Z,70.79
2023-03-03T18:18:45.634Z,71.24
2023-03-03T18:21:16.698Z,71.01
2023-03-03T18:23:45.048Z,71.44
2023-03-03T18:26:30.236Z,71.06
2023-03-03T18:29:10.925Z,70.69
2023-03-03T18:32:00.289Z,71.54
2023-03-03T18:34:40.249Z,71.65
2023-03-03T18:37:25.601Z,71.38
2023-03-03T18:40:04.408Z,72.20
2023-03-03T18:42:38.335Z,72.30
2023-03-03T18:45:20.347Z,71.98
2023-03-03T18:48:05.169Z,71.36
2023-03-03T18:50:31.548Z,70.80
2023-03-03T18:53:21.252Z,71.98
2023-03-03T18:55:48.905Z,72.12
2023-03-03T18:58:15.247Z,71.83
2023-03-03T19:01:02.822Z,72.17
2023-03-03T19:03:29.245Z,72.13
2023-03-03T19:05:57.846Z,72.12
2023-03-03T19:08:26.465Z,71.74
2023-03-03T19:11:03.112Z,71.73
2023-03-03T19:13:32.604Z,72.63
2023-03-03T19:16:06.375Z,73.47
2023-03-03T19:18:55.764Z,73.21
2023-03-03T19:21:25.261Z,73.03
2023-03-03T19:24:00.142Z,72.88
2023-03-03T19:26:28.872Z,73.59
2023-03-03T19:29:00.435Z,73.56
2023-03-03T19:31:26.743Z,73.33
2023-03-03T19:34:13.414Z,73.55
2023-03-03T19:36:42.876Z,73.19
2023-03-03T19:39:28.019Z,73.25
2023-03-03T19:42:13.195Z,73.47
2023-03-03T19:44:39.573Z,73.40
2023-03-03T19:47:24.587Z,73.10
2023-03-03T19:50:00.710Z,73.29
2023-03-03T19:52:33.184Z,72.99
2023-03-03T19:55:11.875Z,73.02
2023-03-03T19:58:00.159Z,73.80
2023-03-03T20:00:35.602Z,73.34
2023-03-03T20:03:18.382Z,73.77
2023-03-03T20:06:08.300Z,73.22
2023-03-03T20:08:41.374Z,72.92
2023-03-03T20:11:16.884Z,72.66
2023-03-03T20:13:43.274Z,72.96
2023-03-03T20:16:28.713Z,72.34
2023-03-03T20:19:07.275Z,73.02
2023-03-03T20:21:36.731Z,73.22
2023-03-03T20:24:29.510Z,72.59
2023-03-03T20:27:05.102Z,72.77
2023-03-03T20:29:49.896Z,72.53
2023-03-03T20:32:19.300Z,72.87
2023-03-03T20:34:59.048Z,74.01
2023-03-03T20:37:52.267Z,73.87
2023-03-03T20:40:27.202Z,73.15
2023-03-03T20:42:56.795Z,73.63
2023-03-03T20:45:26.399Z,73.44
2023-03-03T20:48:10.396Z,72.38
2023-03-03T20:50:53.639Z,72.99
2023-03-03T20:53:38.143Z,72.60
2023-03-03T20:56:10.629Z,72.44
2023-03-03T20:59:00.246Z,72.95
2023-03-03T21:01:36.042Z,73.23
2023-03-03T21:04:23.070Z,72.90
2023-03-03T21:06:49.853Z,73.06
2023-03-03T21:09:27.766Z,72.86
2023-03-03T21:11:54.695Z,74.04
2023-03-03T21:14:26.590Z,73.15
2023-03-03T21:16:56.265Z,73.19
2023-03-03T21:19:32.471Z,73.33
2023-03-03T21:22:01.992Z,73.16
2023-03-03T21:24:47.475Z,74.04
2023-03-03T21:27:33.628Z,73.48
2023-03-03T21:30:11.160Z,73.60
2023-03-03T21:32:39.082Z,73.84
2023-03-03T21:35:08.177Z,73.99
2023-03-03T21:37:48.480Z,74.51
2023-03-03T21:40:16.356Z,73.99
2023-03-03T21:42:44.171Z,74.78
2023-03-03T21:45:12.063Z,74.58
2023-03-03T21:47:38.377Z,75.80
2023-03-03T21:50:04.881Z,75.07
2023-03-03T21:52:32.982Z,75.83
2023-03-03T21:54:59.338Z,76.31
2023-03-03T21:57:25.788Z,76.28
2023-03-03T21:59:53.151Z,76.60
2023-03-03T22:02:19.476Z,76.67
2023-03-03T22:04:45.850Z,76.60
2023-03-03T22:07:12.273Z,76.05
2023-03-03T22:09:38.939Z,76.98
2023-03-03T22:12:06.349Z,76.34
2023-03-03T22:14:32.812Z,76.26
2023-03-03T22:16:59.122Z,76.17
2023-03-03T22:19:25.539Z,75.98
2023-03-03T22:21:51.886Z,76.36
2023-03-03T22:24:18.762Z,76.38
2023-03-03T22:26:45.289Z,77.36
2023-03-03T22:29:11.621Z,77.18
2023-03-03T22:31:37.964Z,76.30
2023-03-03T22:34:04.602Z,76.95
2023-03-03T22:36:30.966Z,78.32
2023-03-03T22:38:57.264Z,77.40
2023-03-03T22:41:23.656Z,78.44
2023-03-03T22:43:50.096Z,78.94
2023-03-03T22:46:16.393Z,77.74
2023-03-03T22:48:42.724Z,77.62
2023-03-03T22:51:09.143Z,77.86
2023-03-03T22:53:35.417Z,78.80
2023-03-03T22:56:01.817Z,77.38
2023-03-03T22:58:29.426Z,77.62
2023-03-03T23:00:55.830Z,77.69
2023-03-03T23:03:22.185Z,77.63
2023-03-03T23:05:51.582Z,78.48
2023-03-03T23:08:19.265Z,77.58
2023-03-03T23:10:45.969Z,78.55
2023-03-03T23:13:12.782Z,78.30
2023-03-03T23:15:39.073Z,77.34
2023-03-03T23:18:05.397Z,78.37
2023-03-03T23:20:31.867Z,78.04
2023-03-03T23:22:58.757Z,78.92
2023-03-03T23:25:25.687Z,79.82
2023-03-03T23:27:52.558Z,79.58
2023-03-03T23:30:19.554Z,78.76
2023-03-03T23:32:46.789Z,78.58
2023-03-03T23:35:13.180Z,77.79
2023-03-03T23:37:39.518Z,78.44
2023-03-03T23:40:06.575Z,77.78
2023-03-03T23:42:32.989Z,78.29
2023-03-03T23:44:59.472Z,77.67
2023-03-03T23:47:26.413Z,78.19
2023-03-03T23:49:52.764Z,78.26
2023-03-03T23:52:19.047Z,77.49
2023-03-03T23:54:45.450Z,77.78
2023-03-03T23:57:11.772Z,77.60
2023-03-03T23:59:38.100Z,77.75
